KPBI/PBI METAR and TAF weather

Enter ICAO airport designator
Station Type Date Time Source
KPBI METAR 2019/04/25 09:53 UTC NOAA

KPBI 250953Z 00000KT 10SM SCT037 SCT250 21/18 A2998 RMK AO2 SLP150 T02060178 $


Station Type Date Time Source
KPBI Decoded METAR 2019/04/25 09:53 UTC NOAA

PALM BEACH INTERNATIONAL, FL, United States (KPBI) 26-41N 80-06W 6M
Apr 25, 2019 - 05:53 AM EDT / 2019.04.25 0953 UTC
Wind: Calm:0
Visibility: 10 mile(s):0
Sky conditions: partly cloudy
Temperature: 69.1 F (20.6 C)
Dew Point: 64.0 F (17.8 C)
Relative Humidity: 83%
Pressure (altimeter): 29.98 in. Hg (1015 hPa)
ob: KPBI 250953Z 00000KT 10SM SCT037 SCT250 21/18 A2998 RMK AO2 SLP150 T02060178
cycle: 10

Station Type Date Time Source
KPBI TAF 2019/04/25 09:06 UTC NOAA

TAF
AMD KPBI 250901Z 2509/2606 VRB03KT P6SM FEW040
FM251400 14012KT P6SM SCT040
FM260300 VRB06KT P6SM FEW050

Example: see airport list